sensor_id;sensor_type;location;lat;lon;timestamp;P1;durP1;ratioP1;P2;durP2;ratioP2
40286;SDS011;25998;46.604;13.610;2023-06-10T00:01:10;7.18;;;6.47;;
40286;SDS011;25998;46.604;13.610;2023-06-10T00:04:20;7.68;;;5.75;;
40286;SDS011;25998;46.604;13.610;2023-06-10T00:07:32;8.13;;;6.07;;
40286;SDS011;25998;46.604;13.610;2023-06-10T00:10:43;7.30;;;5.53;;
40286;SDS011;25998;46.604;13.610;2023-06-10T00:13:54;6.68;;;5.63;;
40286;SDS011;25998;46.604;13.610;2023-06-10T00:17:05;7.75;;;5.55;;
40286;SDS011;25998;46.604;13.610;2023-06-10T00:20:19;7.78;;;6.15;;
40286;SDS011;25998;46.604;13.610;2023-06-10T00:23:33;7.95;;;5.97;;
40286;SDS011;25998;46.604;13.610;2023-06-10T00:26:47;7.80;;;6.03;;
40286;SDS011;25998;46.604;13.610;2023-06-10T00:29:58;8.05;;;6.38;;
40286;SDS011;25998;46.604;13.610;2023-06-10T00:33:09;7.65;;;6.47;;
40286;SDS011;25998;46.604;13.610;2023-06-10T00:36:20;6.97;;;6.10;;
40286;SDS011;25998;46.604;13.610;2023-06-10T00:39:31;7.57;;;5.80;;
40286;SDS011;25998;46.604;13.610;2023-06-10T00:42:42;8.45;;;5.97;;
40286;SDS011;25998;46.604;13.610;2023-06-10T00:45:53;7.40;;;6.32;;
40286;SDS011;25998;46.604;13.610;2023-06-10T00:49:04;8.35;;;6.57;;
40286;SDS011;25998;46.604;13.610;2023-06-10T00:52:16;8.52;;;6.38;;
40286;SDS011;25998;46.604;13.610;2023-06-10T00:55:29;7.88;;;6.45;;
40286;SDS011;25998;46.604;13.610;2023-06-10T00:58:42;7.47;;;6.55;;
40286;SDS011;25998;46.604;13.610;2023-06-10T01:01:53;7.25;;;6.50;;
40286;SDS011;25998;46.604;13.610;2023-06-10T01:05:05;9.75;;;7.28;;
40286;SDS011;25998;46.604;13.610;2023-06-10T01:15:26;9.32;;;6.18;;
40286;SDS011;25998;46.604;13.610;2023-06-10T01:18:37;10.98;;;7.03;;
40286;SDS011;25998;46.604;13.610;2023-06-10T01:21:50;11.55;;;6.90;;
40286;SDS011;25998;46.604;13.610;2023-06-10T01:25:02;8.25;;;5.85;;
40286;SDS011;25998;46.604;13.610;2023-06-10T01:28:21;7.43;;;6.18;;
40286;SDS011;25998;46.604;13.610;2023-06-10T01:34:53;11.35;;;6.20;;
40286;SDS011;25998;46.604;13.610;2023-06-10T01:38:06;7.53;;;6.68;;
40286;SDS011;25998;46.604;13.610;2023-06-10T01:41:17;7.72;;;6.88;;
40286;SDS011;25998;46.604;13.610;2023-06-10T01:44:31;7.45;;;6.68;;
40286;SDS011;25998;46.604;13.610;2023-06-10T01:47:42;7.47;;;6.75;;
40286;SDS011;25998;46.604;13.610;2023-06-10T01:50:53;11.10;;;7.20;;
40286;SDS011;25998;46.604;13.610;2023-06-10T01:54:06;8.55;;;6.97;;
40286;SDS011;25998;46.604;13.610;2023-06-10T01:57:16;8.23;;;7.20;;
40286;SDS011;25998;46.604;13.610;2023-06-10T02:00:28;9.23;;;6.70;;
40286;SDS011;25998;46.604;13.610;2023-06-10T02:03:39;7.55;;;6.85;;
40286;SDS011;25998;46.604;13.610;2023-06-10T02:06:50;7.72;;;6.13;;
40286;SDS011;25998;46.604;13.610;2023-06-10T02:10:01;7.13;;;6.43;;
40286;SDS011;25998;46.604;13.610;2023-06-10T02:13:12;8.65;;;7.00;;
40286;SDS011;25998;46.604;13.610;2023-06-10T02:16:23;10.35;;;6.90;;
40286;SDS011;25998;46.604;13.610;2023-06-10T02:19:34;7.55;;;6.75;;
40286;SDS011;25998;46.604;13.610;2023-06-10T02:22:47;7.75;;;6.97;;
40286;SDS011;25998;46.604;13.610;2023-06-10T02:25:57;7.47;;;6.45;;
40286;SDS011;25998;46.604;13.610;2023-06-10T02:29:08;8.00;;;6.13;;
40286;SDS011;25998;46.604;13.610;2023-06-10T02:32:19;8.98;;;7.00;;
40286;SDS011;25998;46.604;13.610;2023-06-10T02:35:30;9.98;;;6.80;;
40286;SDS011;25998;46.604;13.610;2023-06-10T02:38:41;8.68;;;6.97;;
40286;SDS011;25998;46.604;13.610;2023-06-10T02:41:52;7.97;;;7.07;;
40286;SDS011;25998;46.604;13.610;2023-06-10T02:45:03;16.38;;;7.65;;
40286;SDS011;25998;46.604;13.610;2023-06-10T02:48:15;11.30;;;6.90;;
40286;SDS011;25998;46.604;13.610;2023-06-10T02:51:25;10.00;;;7.78;;
40286;SDS011;25998;46.604;13.610;2023-06-10T02:54:37;7.88;;;7.10;;
40286;SDS011;25998;46.604;13.610;2023-06-10T02:57:48;11.18;;;7.35;;
40286;SDS011;25998;46.604;13.610;2023-06-10T03:00:59;7.93;;;7.03;;
40286;SDS011;25998;46.604;13.610;2023-06-10T03:04:10;7.03;;;6.22;;
40286;SDS011;25998;46.604;13.610;2023-06-10T03:07:23;7.15;;;6.55;;
40286;SDS011;25998;46.604;13.610;2023-06-10T03:10:36;8.57;;;7.00;;
40286;SDS011;25998;46.604;13.610;2023-06-10T03:13:46;8.40;;;7.55;;
40286;SDS011;25998;46.604;13.610;2023-06-10T03:16:57;8.90;;;7.85;;
40286;SDS011;25998;46.604;13.610;2023-06-10T03:20:09;12.32;;;8.45;;
40286;SDS011;25998;46.604;13.610;2023-06-10T03:23:21;8.50;;;7.53;;
40286;SDS011;25998;46.604;13.610;2023-06-10T03:26:32;8.20;;;7.40;;
40286;SDS011;25998;46.604;13.610;2023-06-10T03:29:43;8.73;;;7.90;;
40286;SDS011;25998;46.604;13.610;2023-06-10T03:32:55;8.60;;;7.70;;
40286;SDS011;25998;46.604;13.610;2023-06-10T03:36:05;8.90;;;7.68;;
40286;SDS011;25998;46.604;13.610;2023-06-10T03:39:16;8.50;;;7.47;;
40286;SDS011;25998;46.604;13.610;2023-06-10T03:42:27;8.63;;;7.50;;
40286;SDS011;25998;46.604;13.610;2023-06-10T03:45:38;8.73;;;7.75;;
40286;SDS011;25998;46.604;13.610;2023-06-10T03:48:51;9.88;;;7.15;;
40286;SDS011;25998;46.604;13.610;2023-06-10T03:52:02;9.90;;;7.40;;
40286;SDS011;25998;46.604;13.610;2023-06-10T03:55:13;8.25;;;7.28;;
40286;SDS011;25998;46.604;13.610;2023-06-10T03:58:23;8.32;;;7.57;;
40286;SDS011;25998;46.604;13.610;2023-06-10T04:01:34;7.38;;;6.65;;
40286;SDS011;25998;46.604;13.610;2023-06-10T04:04:47;9.32;;;7.25;;
40286;SDS011;25998;46.604;13.610;2023-06-10T04:07:58;8.23;;;7.35;;
40286;SDS011;25998;46.604;13.610;2023-06-10T04:11:09;8.38;;;6.93;;
40286;SDS011;25998;46.604;13.610;2023-06-10T04:14:20;9.15;;;8.35;;
40286;SDS011;25998;46.604;13.610;2023-06-10T04:17:31;10.25;;;8.18;;
40286;SDS011;25998;46.604;13.610;2023-06-10T04:20:42;8.80;;;7.93;;
40286;SDS011;25998;46.604;13.610;2023-06-10T04:23:54;9.02;;;8.13;;
40286;SDS011;25998;46.604;13.610;2023-06-10T04:27:05;9.45;;;8.02;;
40286;SDS011;25998;46.604;13.610;2023-06-10T04:30:16;9.93;;;8.70;;
40286;SDS011;25998;46.604;13.610;2023-06-10T04:33:27;8.65;;;7.78;;
40286;SDS011;25998;46.604;13.610;2023-06-10T04:36:38;10.02;;;8.55;;
40286;SDS011;25998;46.604;13.610;2023-06-10T04:39:49;8.23;;;7.50;;
40286;SDS011;25998;46.604;13.610;2023-06-10T04:43:00;7.65;;;6.95;;
40286;SDS011;25998;46.604;13.610;2023-06-10T04:46:11;11.15;;;7.28;;
40286;SDS011;25998;46.604;13.610;2023-06-10T04:49:23;10.02;;;7.68;;
40286;SDS011;25998;46.604;13.610;2023-06-10T04:52:34;9.35;;;8.00;;
40286;SDS011;25998;46.604;13.610;2023-06-10T04:55:45;8.50;;;7.70;;
40286;SDS011;25998;46.604;13.610;2023-06-10T04:58:56;10.07;;;8.55;;
40286;SDS011;25998;46.604;13.610;2023-06-10T05:02:07;9.30;;;8.40;;
40286;SDS011;25998;46.604;13.610;2023-06-10T05:05:18;9.82;;;8.45;;
40286;SDS011;25998;46.604;13.610;2023-06-10T05:08:29;8.02;;;7.28;;
40286;SDS011;25998;46.604;13.610;2023-06-10T05:11:40;8.43;;;7.60;;
40286;SDS011;25998;46.604;13.610;2023-06-10T05:14:51;8.40;;;7.60;;
40286;SDS011;25998;46.604;13.610;2023-06-10T05:18:02;8.88;;;8.00;;
40286;SDS011;25998;46.604;13.610;2023-06-10T05:21:14;8.50;;;7.70;;
40286;SDS011;25998;46.604;13.610;2023-06-10T05:24:25;9.10;;;8.15;;
40286;SDS011;25998;46.604;13.610;2023-06-10T05:27:36;8.10;;;7.30;;
40286;SDS011;25998;46.604;13.610;2023-06-10T05:30:48;10.30;;;8.32;;
40286;SDS011;25998;46.604;13.610;2023-06-10T05:34:00;8.45;;;7.65;;
40286;SDS011;25998;46.604;13.610;2023-06-10T05:37:10;8.30;;;7.50;;
40286;SDS011;25998;46.604;13.610;2023-06-10T05:40:22;8.07;;;7.38;;
40286;SDS011;25998;46.604;13.610;2023-06-10T05:43:33;7.68;;;6.95;;
40286;SDS011;25998;46.604;13.610;2023-06-10T05:46:45;8.40;;;7.55;;
40286;SDS011;25998;46.604;13.610;2023-06-10T05:49:56;8.30;;;7.38;;
40286;SDS011;25998;46.604;13.610;2023-06-10T05:53:06;7.30;;;6.57;;
40286;SDS011;25998;46.604;13.610;2023-06-10T05:56:24;7.97;;;7.18;;
40286;SDS011;25998;46.604;13.610;2023-06-10T05:59:36;7.75;;;6.97;;
40286;SDS011;25998;46.604;13.610;2023-06-10T06:02:46;11.73;;;8.25;;
40286;SDS011;25998;46.604;13.610;2023-06-10T06:05:57;7.50;;;6.78;;
40286;SDS011;25998;46.604;13.610;2023-06-10T06:09:08;7.40;;;6.70;;
40286;SDS011;25998;46.604;13.610;2023-06-10T06:12:19;7.60;;;6.78;;
40286;SDS011;25998;46.604;13.610;2023-06-10T06:15:30;7.40;;;6.57;;
40286;SDS011;25998;46.604;13.610;2023-06-10T06:18:40;7.68;;;6.88;;
40286;SDS011;25998;46.604;13.610;2023-06-10T06:21:51;7.75;;;6.35;;
40286;SDS011;25998;46.604;13.610;2023-06-10T06:25:02;7.22;;;6.10;;
40286;SDS011;25998;46.604;13.610;2023-06-10T06:28:13;7.32;;;6.65;;
40286;SDS011;25998;46.604;13.610;2023-06-10T06:31:24;8.32;;;6.38;;
40286;SDS011;25998;46.604;13.610;2023-06-10T06:34:35;6.75;;;6.15;;
40286;SDS011;25998;46.604;13.610;2023-06-10T06:37:46;7.07;;;6.47;;
40286;SDS011;25998;46.604;13.610;2023-06-10T06:40:56;7.43;;;6.72;;
40286;SDS011;25998;46.604;13.610;2023-06-10T06:44:12;7.18;;;6.18;;
40286;SDS011;25998;46.604;13.610;2023-06-10T06:47:23;8.80;;;6.75;;
40286;SDS011;25998;46.604;13.610;2023-06-10T06:50:35;7.03;;;6.43;;
40286;SDS011;25998;46.604;13.610;2023-06-10T06:53:48;7.15;;;6.45;;
40286;SDS011;25998;46.604;13.610;2023-06-10T06:57:00;7.25;;;6.55;;
40286;SDS011;25998;46.604;13.610;2023-06-10T07:00:11;7.35;;;6.10;;
40286;SDS011;25998;46.604;13.610;2023-06-10T07:03:22;8.48;;;7.05;;
40286;SDS011;25998;46.604;13.610;2023-06-10T07:06:33;7.35;;;6.65;;
40286;SDS011;25998;46.604;13.610;2023-06-10T07:09:45;7.00;;;6.15;;
40286;SDS011;25998;46.604;13.610;2023-06-10T07:12:56;6.35;;;5.78;;
40286;SDS011;25998;46.604;13.610;2023-06-10T07:16:06;7.15;;;6.55;;
40286;SDS011;25998;46.604;13.610;2023-06-10T07:19:17;7.30;;;6.28;;
40286;SDS011;25998;46.604;13.610;2023-06-10T07:22:31;7.28;;;6.65;;
40286;SDS011;25998;46.604;13.610;2023-06-10T07:25:41;8.88;;;6.20;;
40286;SDS011;25998;46.604;13.610;2023-06-10T07:28:52;6.57;;;5.97;;
40286;SDS011;25998;46.604;13.610;2023-06-10T07:32:03;8.18;;;6.13;;
40286;SDS011;25998;46.604;13.610;2023-06-10T07:35:14;7.40;;;6.35;;
40286;SDS011;25998;46.604;13.610;2023-06-10T07:38:25;6.68;;;6.07;;
40286;SDS011;25998;46.604;13.610;2023-06-10T07:41:36;7.15;;;6.45;;
40286;SDS011;25998;46.604;13.610;2023-06-10T07:44:47;6.97;;;6.28;;
40286;SDS011;25998;46.604;13.610;2023-06-10T07:47:58;7.72;;;7.03;;
40286;SDS011;25998;46.604;13.610;2023-06-10T07:51:09;7.47;;;6.72;;
40286;SDS011;25998;46.604;13.610;2023-06-10T07:54:20;7.00;;;6.40;;
40286;SDS011;25998;46.604;13.610;2023-06-10T07:57:31;7.68;;;6.97;;
40286;SDS011;25998;46.604;13.610;2023-06-10T08:00:46;7.35;;;6.68;;
40286;SDS011;25998;46.604;13.610;2023-06-10T08:03:56;7.18;;;6.47;;
40286;SDS011;25998;46.604;13.610;2023-06-10T08:07:07;7.10;;;6.43;;
40286;SDS011;25998;46.604;13.610;2023-06-10T08:10:18;7.75;;;6.90;;
40286;SDS011;25998;46.604;13.610;2023-06-10T08:13:29;6.80;;;6.20;;
40286;SDS011;25998;46.604;13.610;2023-06-10T08:16:40;7.22;;;6.50;;
40286;SDS011;25998;46.604;13.610;2023-06-10T08:19:51;7.60;;;6.90;;
40286;SDS011;25998;46.604;13.610;2023-06-10T08:23:02;6.97;;;6.38;;
40286;SDS011;25998;46.604;13.610;2023-06-10T08:26:13;7.30;;;6.60;;
40286;SDS011;25998;46.604;13.610;2023-06-10T08:29:24;7.65;;;6.50;;
40286;SDS011;25998;46.604;13.610;2023-06-10T08:32:36;6.75;;;6.13;;
40286;SDS011;25998;46.604;13.610;2023-06-10T08:35:47;7.75;;;6.55;;
40286;SDS011;25998;46.604;13.610;2023-06-10T08:38:58;7.13;;;6.53;;
40286;SDS011;25998;46.604;13.610;2023-06-10T08:42:21;8.23;;;6.55;;
40286;SDS011;25998;46.604;13.610;2023-06-10T08:45:38;7.10;;;6.40;;
40286;SDS011;25998;46.604;13.610;2023-06-10T08:48:52;6.78;;;6.18;;
40286;SDS011;25998;46.604;13.610;2023-06-10T08:52:05;6.97;;;6.28;;
40286;SDS011;25998;46.604;13.610;2023-06-10T08:55:18;7.43;;;6.72;;
40286;SDS011;25998;46.604;13.610;2023-06-10T08:58:43;7.30;;;6.60;;
40286;SDS011;25998;46.604;13.610;2023-06-10T09:01:57;6.80;;;6.20;;
40286;SDS011;25998;46.604;13.610;2023-06-10T09:05:09;7.30;;;6.65;;
40286;SDS011;25998;46.604;13.610;2023-06-10T09:08:22;7.45;;;6.63;;
40286;SDS011;25998;46.604;13.610;2023-06-10T09:11:33;7.53;;;6.70;;
40286;SDS011;25998;46.604;13.610;2023-06-10T09:14:44;7.28;;;6.20;;
40286;SDS011;25998;46.604;13.610;2023-06-10T09:17:55;6.80;;;6.20;;
40286;SDS011;25998;46.604;13.610;2023-06-10T09:21:05;7.15;;;6.47;;
40286;SDS011;25998;46.604;13.610;2023-06-10T09:24:16;8.18;;;5.90;;
40286;SDS011;25998;46.604;13.610;2023-06-10T09:27:29;6.85;;;6.25;;
40286;SDS011;25998;46.604;13.610;2023-06-10T09:30:42;6.68;;;6.07;;
40286;SDS011;25998;46.604;13.610;2023-06-10T09:33:52;6.32;;;5.72;;
40286;SDS011;25998;46.604;13.610;2023-06-10T09:37:03;6.22;;;5.63;;
40286;SDS011;25998;46.604;13.610;2023-06-10T09:40:15;6.38;;;5.78;;
40286;SDS011;25998;46.604;13.610;2023-06-10T09:43:44;6.30;;;5.70;;
40286;SDS011;25998;46.604;13.610;2023-06-10T09:46:56;5.70;;;5.20;;
40286;SDS011;25998;46.604;13.610;2023-06-10T09:50:09;5.00;;;4.50;;
40286;SDS011;25998;46.604;13.610;2023-06-10T09:53:20;5.75;;;5.22;;
40286;SDS011;25998;46.604;13.610;2023-06-10T09:56:37;5.28;;;4.78;;
40286;SDS011;25998;46.604;13.610;2023-06-10T09:59:52;6.07;;;5.47;;
40286;SDS011;25998;46.604;13.610;2023-06-10T10:03:04;6.10;;;5.30;;
40286;SDS011;25998;46.604;13.610;2023-06-10T10:06:17;6.32;;;5.43;;
40286;SDS011;25998;46.604;13.610;2023-06-10T10:09:29;24.42;;;10.75;;
40286;SDS011;25998;46.604;13.610;2023-06-10T10:12:41;5.70;;;5.10;;
40286;SDS011;25998;46.604;13.610;2023-06-10T10:15:52;5.60;;;5.00;;
40286;SDS011;25998;46.604;13.610;2023-06-10T10:19:25;4.82;;;4.30;;
40286;SDS011;25998;46.604;13.610;2023-06-10T10:22:38;5.00;;;4.53;;
40286;SDS011;25998;46.604;13.610;2023-06-10T10:25:51;5.13;;;4.63;;
40286;SDS011;25998;46.604;13.610;2023-06-10T10:29:11;5.22;;;4.72;;
40286;SDS011;25998;46.604;13.610;2023-06-10T10:32:35;5.97;;;4.88;;
40286;SDS011;25998;46.604;13.610;2023-06-10T10:35:52;5.20;;;4.75;;
40286;SDS011;25998;46.604;13.610;2023-06-10T10:39:04;4.90;;;4.40;;
40286;SDS011;25998;46.604;13.610;2023-06-10T10:42:15;15.60;;;8.35;;
40286;SDS011;25998;46.604;13.610;2023-06-10T10:45:27;5.13;;;4.63;;
40286;SDS011;25998;46.604;13.610;2023-06-10T10:48:39;5.22;;;4.72;;
40286;SDS011;25998;46.604;13.610;2023-06-10T10:51:54;6.38;;;4.93;;
40286;SDS011;25998;46.604;13.610;2023-06-10T10:55:12;5.47;;;4.70;;
40286;SDS011;25998;46.604;13.610;2023-06-10T10:58:25;5.00;;;4.22;;
40286;SDS011;25998;46.604;13.610;2023-06-10T11:01:40;5.00;;;4.50;;
40286;SDS011;25998;46.604;13.610;2023-06-10T11:04:52;4.85;;;3.83;;
40286;SDS011;25998;46.604;13.610;2023-06-10T11:08:05;5.55;;;3.90;;
40286;SDS011;25998;46.604;13.610;2023-06-10T11:11:18;6.13;;;3.80;;
40286;SDS011;25998;46.604;13.610;2023-06-10T11:14:38;4.82;;;4.32;;
40286;SDS011;25998;46.604;13.610;2023-06-10T11:18:06;4.43;;;3.83;;
40286;SDS011;25998;46.604;13.610;2023-06-10T11:21:24;4.53;;;4.13;;
40286;SDS011;25998;46.604;13.610;2023-06-10T11:24:36;6.95;;;4.22;;
40286;SDS011;25998;46.604;13.610;2023-06-10T11:27:47;4.70;;;4.10;;
40286;SDS011;25998;46.604;13.610;2023-06-10T11:31:02;5.47;;;4.10;;
40286;SDS011;25998;46.604;13.610;2023-06-10T11:34:13;5.07;;;3.70;;
40286;SDS011;25998;46.604;13.610;2023-06-10T11:37:25;4.15;;;3.75;;
40286;SDS011;25998;46.604;13.610;2023-06-10T11:40:37;4.10;;;3.70;;
40286;SDS011;25998;46.604;13.610;2023-06-10T11:43:49;5.60;;;4.00;;
40286;SDS011;25998;46.604;13.610;2023-06-10T11:47:00;14.90;;;4.70;;
40286;SDS011;25998;46.604;13.610;2023-06-10T11:50:10;5.90;;;4.47;;
40286;SDS011;25998;46.604;13.610;2023-06-10T11:53:21;5.10;;;4.35;;
40286;SDS011;25998;46.604;13.610;2023-06-10T11:56:32;7.15;;;4.15;;
40286;SDS011;25998;46.604;13.610;2023-06-10T11:59:43;5.05;;;3.78;;
40286;SDS011;25998;46.604;13.610;2023-06-10T12:02:57;14.82;;;4.78;;
40286;SDS011;25998;46.604;13.610;2023-06-10T12:06:11;5.85;;;3.50;;
40286;SDS011;25998;46.604;13.610;2023-06-10T12:09:24;14.07;;;4.35;;
40286;SDS011;25998;46.604;13.610;2023-06-10T12:12:42;5.53;;;4.45;;
40286;SDS011;25998;46.604;13.610;2023-06-10T12:15:53;12.52;;;4.93;;
40286;SDS011;25998;46.604;13.610;2023-06-10T12:19:05;5.40;;;4.35;;
40286;SDS011;25998;46.604;13.610;2023-06-10T12:22:16;7.18;;;4.57;;
40286;SDS011;25998;46.604;13.610;2023-06-10T12:25:29;9.05;;;4.35;;
40286;SDS011;25998;46.604;13.610;2023-06-10T12:28:40;5.35;;;3.95;;
40286;SDS011;25998;46.604;13.610;2023-06-10T12:32:02;12.93;;;4.53;;
40286;SDS011;25998;46.604;13.610;2023-06-10T12:35:18;4.47;;;3.92;;
40286;SDS011;25998;46.604;13.610;2023-06-10T12:38:31;11.60;;;6.55;;
40286;SDS011;25998;46.604;13.610;2023-06-10T12:41:49;5.03;;;4.53;;
40286;SDS011;25998;46.604;13.610;2023-06-10T12:45:01;4.03;;;3.63;;
40286;SDS011;25998;46.604;13.610;2023-06-10T12:48:19;4.43;;;4.03;;
40286;SDS011;25998;46.604;13.610;2023-06-10T12:51:31;14.18;;;4.43;;
40286;SDS011;25998;46.604;13.610;2023-06-10T12:54:44;5.25;;;3.42;;
40286;SDS011;25998;46.604;13.610;2023-06-10T12:57:55;8.93;;;3.80;;
40286;SDS011;25998;46.604;13.610;2023-06-10T13:01:07;4.25;;;3.33;;
40286;SDS011;25998;46.604;13.610;2023-06-10T13:04:18;4.68;;;4.18;;
40286;SDS011;25998;46.604;13.610;2023-06-10T13:07:30;6.88;;;4.00;;
40286;SDS011;25998;46.604;13.610;2023-06-10T13:10:41;4.20;;;3.67;;
40286;SDS011;25998;46.604;13.610;2023-06-10T13:13:52;4.50;;;4.10;;
40286;SDS011;25998;46.604;13.610;2023-06-10T13:17:04;4.05;;;3.65;;
40286;SDS011;25998;46.604;13.610;2023-06-10T13:20:18;3.95;;;3.55;;
40286;SDS011;25998;46.604;13.610;2023-06-10T13:23:30;4.68;;;4.00;;
40286;SDS011;25998;46.604;13.610;2023-06-10T13:26:41;3.92;;;3.40;;
40286;SDS011;25998;46.604;13.610;2023-06-10T13:29:52;4.72;;;3.40;;
40286;SDS011;25998;46.604;13.610;2023-06-10T13:33:03;5.63;;;3.58;;
40286;SDS011;25998;46.604;13.610;2023-06-10T13:36:14;5.22;;;3.10;;
40286;SDS011;25998;46.604;13.610;2023-06-10T13:39:25;6.10;;;3.00;;
40286;SDS011;25998;46.604;13.610;2023-06-10T13:42:36;3.72;;;3.10;;
40286;SDS011;25998;46.604;13.610;2023-06-10T13:45:47;4.82;;;3.20;;
40286;SDS011;25998;46.604;13.610;2023-06-10T13:48:58;7.13;;;3.67;;
40286;SDS011;25998;46.604;13.610;2023-06-10T13:52:09;4.57;;;3.58;;
40286;SDS011;25998;46.604;13.610;2023-06-10T13:55:20;4.75;;;4.00;;
40286;SDS011;25998;46.604;13.610;2023-06-10T13:58:31;4.18;;;3.20;;
40286;SDS011;25998;46.604;13.610;2023-06-10T14:01:42;4.13;;;3.28;;
40286;SDS011;25998;46.604;13.610;2023-06-10T14:04:53;4.50;;;2.53;;
40286;SDS011;25998;46.604;13.610;2023-06-10T14:08:04;3.40;;;2.83;;
40286;SDS011;25998;46.604;13.610;2023-06-10T14:11:16;2.88;;;2.40;;
40286;SDS011;25998;46.604;13.610;2023-06-10T14:14:26;3.22;;;2.88;;
40286;SDS011;25998;46.604;13.610;2023-06-10T14:17:37;4.72;;;2.92;;
40286;SDS011;25998;46.604;13.610;2023-06-10T14:20:48;4.93;;;3.00;;
40286;SDS011;25998;46.604;13.610;2023-06-10T14:23:59;3.33;;;3.03;;
40286;SDS011;25998;46.604;13.610;2023-06-10T14:27:10;3.83;;;3.38;;
40286;SDS011;25998;46.604;13.610;2023-06-10T14:30:21;5.70;;;3.10;;
40286;SDS011;25998;46.604;13.610;2023-06-10T14:33:32;4.20;;;2.97;;
40286;SDS011;25998;46.604;13.610;2023-06-10T14:36:43;4.60;;;3.38;;
40286;SDS011;25998;46.604;13.610;2023-06-10T14:39:54;5.57;;;3.25;;
40286;SDS011;25998;46.604;13.610;2023-06-10T14:43:05;2.97;;;2.58;;
40286;SDS011;25998;46.604;13.610;2023-06-10T14:46:20;3.20;;;2.50;;
40286;SDS011;25998;46.604;13.610;2023-06-10T14:49:34;6.35;;;3.70;;
40286;SDS011;25998;46.604;13.610;2023-06-10T14:52:45;25.35;;;12.80;;
40286;SDS011;25998;46.604;13.610;2023-06-10T14:55:56;6.15;;;2.88;;
40286;SDS011;25998;46.604;13.610;2023-06-10T14:59:06;3.35;;;2.30;;
40286;SDS011;25998;46.604;13.610;2023-06-10T15:02:17;4.65;;;2.70;;
40286;SDS011;25998;46.604;13.610;2023-06-10T15:05:28;6.05;;;2.83;;
40286;SDS011;25998;46.604;13.610;2023-06-10T15:08:39;3.00;;;2.60;;
40286;SDS011;25998;46.604;13.610;2023-06-10T15:11:50;3.63;;;2.75;;
40286;SDS011;25998;46.604;13.610;2023-06-10T15:15:01;3.65;;;2.70;;
40286;SDS011;25998;46.604;13.610;2023-06-10T15:18:12;3.33;;;2.80;;
40286;SDS011;25998;46.604;13.610;2023-06-10T15:21:23;4.20;;;3.05;;
40286;SDS011;25998;46.604;13.610;2023-06-10T15:24:34;4.68;;;2.92;;
40286;SDS011;25998;46.604;13.610;2023-06-10T15:27:45;5.72;;;3.00;;
40286;SDS011;25998;46.604;13.610;2023-06-10T15:30:56;5.90;;;3.60;;
40286;SDS011;25998;46.604;13.610;2023-06-10T15:34:06;4.90;;;3.72;;
40286;SDS011;25998;46.604;13.610;2023-06-10T15:37:18;4.38;;;3.80;;
40286;SDS011;25998;46.604;13.610;2023-06-10T15:40:30;4.80;;;3.70;;
40286;SDS011;25998;46.604;13.610;2023-06-10T15:43:42;4.68;;;3.45;;
40286;SDS011;25998;46.604;13.610;2023-06-10T15:46:52;4.57;;;3.55;;
40286;SDS011;25998;46.604;13.610;2023-06-10T15:50:03;3.95;;;2.83;;
40286;SDS011;25998;46.604;13.610;2023-06-10T15:53:15;5.18;;;2.78;;
40286;SDS011;25998;46.604;13.610;2023-06-10T15:56:25;3.28;;;2.65;;
40286;SDS011;25998;46.604;13.610;2023-06-10T15:59:37;7.78;;;4.55;;
40286;SDS011;25998;46.604;13.610;2023-06-10T16:02:47;4.45;;;2.60;;
40286;SDS011;25998;46.604;13.610;2023-06-10T16:05:58;2.58;;;2.25;;
40286;SDS011;25998;46.604;13.610;2023-06-10T16:09:09;3.42;;;2.03;;
40286;SDS011;25998;46.604;13.610;2023-06-10T16:12:20;2.80;;;2.10;;
40286;SDS011;25998;46.604;13.610;2023-06-10T16:15:31;3.13;;;2.10;;
40286;SDS011;25998;46.604;13.610;2023-06-10T16:18:42;2.92;;;2.17;;
40286;SDS011;25998;46.604;13.610;2023-06-10T16:21:53;3.80;;;2.72;;
40286;SDS011;25998;46.604;13.610;2023-06-10T16:25:04;3.42;;;2.28;;
40286;SDS011;25998;46.604;13.610;2023-06-10T16:28:16;3.60;;;2.38;;
40286;SDS011;25998;46.604;13.610;2023-06-10T16:31:27;2.65;;;2.30;;
40286;SDS011;25998;46.604;13.610;2023-06-10T16:34:37;4.85;;;2.70;;
40286;SDS011;25998;46.604;13.610;2023-06-10T16:37:48;3.22;;;2.45;;
40286;SDS011;25998;46.604;13.610;2023-06-10T16:40:59;2.75;;;2.33;;
40286;SDS011;25998;46.604;13.610;2023-06-10T16:44:10;3.67;;;2.60;;
40286;SDS011;25998;46.604;13.610;2023-06-10T16:47:21;3.00;;;2.53;;
40286;SDS011;25998;46.604;13.610;2023-06-10T16:50:32;3.53;;;2.72;;
40286;SDS011;25998;46.604;13.610;2023-06-10T16:53:43;3.20;;;2.50;;
40286;SDS011;25998;46.604;13.610;2023-06-10T16:56:54;4.35;;;2.50;;
40286;SDS011;25998;46.604;13.610;2023-06-10T17:00:05;6.30;;;2.90;;
40286;SDS011;25998;46.604;13.610;2023-06-10T17:03:16;4.93;;;2.72;;
40286;SDS011;25998;46.604;13.610;2023-06-10T17:06:27;3.42;;;2.50;;
40286;SDS011;25998;46.604;13.610;2023-06-10T17:09:38;5.47;;;2.95;;
40286;SDS011;25998;46.604;13.610;2023-06-10T17:12:49;3.78;;;2.83;;
40286;SDS011;25998;46.604;13.610;2023-06-10T17:16:00;3.33;;;2.65;;
40286;SDS011;25998;46.604;13.610;2023-06-10T17:19:10;3.92;;;2.42;;
40286;SDS011;25998;46.604;13.610;2023-06-10T17:22:21;3.33;;;2.60;;
40286;SDS011;25998;46.604;13.610;2023-06-10T17:25:32;3.28;;;2.70;;
40286;SDS011;25998;46.604;13.610;2023-06-10T17:28:44;3.88;;;2.78;;
40286;SDS011;25998;46.604;13.610;2023-06-10T17:31:55;2.88;;;2.50;;
40286;SDS011;25998;46.604;13.610;2023-06-10T17:35:07;5.22;;;2.70;;
40286;SDS011;25998;46.604;13.610;2023-06-10T17:38:19;5.57;;;2.75;;
40286;SDS011;25998;46.604;13.610;2023-06-10T17:41:31;3.25;;;2.88;;
40286;SDS011;25998;46.604;13.610;2023-06-10T17:44:42;3.20;;;2.70;;
40286;SDS011;25998;46.604;13.610;2023-06-10T17:47:53;4.28;;;3.05;;
40286;SDS011;25998;46.604;13.610;2023-06-10T17:51:04;3.75;;;3.08;;
40286;SDS011;25998;46.604;13.610;2023-06-10T17:54:15;4.10;;;3.15;;
40286;SDS011;25998;46.604;13.610;2023-06-10T17:57:26;3.97;;;3.28;;
40286;SDS011;25998;46.604;13.610;2023-06-10T18:00:38;5.35;;;2.85;;
40286;SDS011;25998;46.604;13.610;2023-06-10T18:03:49;3.60;;;3.03;;
40286;SDS011;25998;46.604;13.610;2023-06-10T18:07:00;3.55;;;3.10;;
40286;SDS011;25998;46.604;13.610;2023-06-10T18:10:11;4.00;;;3.40;;
40286;SDS011;25998;46.604;13.610;2023-06-10T18:13:22;6.20;;;3.30;;
40286;SDS011;25998;46.604;13.610;2023-06-10T18:16:33;3.80;;;3.30;;
40286;SDS011;25998;46.604;13.610;2023-06-10T18:19:43;4.78;;;3.30;;
40286;SDS011;25998;46.604;13.610;2023-06-10T18:22:54;3.65;;;3.20;;
40286;SDS011;25998;46.604;13.610;2023-06-10T18:26:05;4.55;;;3.60;;
40286;SDS011;25998;46.604;13.610;2023-06-10T18:29:16;4.55;;;3.60;;
40286;SDS011;25998;46.604;13.610;2023-06-10T18:32:27;5.57;;;3.45;;
40286;SDS011;25998;46.604;13.610;2023-06-10T18:35:38;6.57;;;3.90;;
40286;SDS011;25998;46.604;13.610;2023-06-10T18:38:48;6.55;;;3.70;;
40286;SDS011;25998;46.604;13.610;2023-06-10T18:42:00;4.07;;;3.30;;
40286;SDS011;25998;46.604;13.610;2023-06-10T18:45:12;6.18;;;3.60;;
40286;SDS011;25998;46.604;13.610;2023-06-10T18:48:22;5.68;;;3.30;;
40286;SDS011;25998;46.604;13.610;2023-06-10T18:51:33;3.92;;;3.38;;
40286;SDS011;25998;46.604;13.610;2023-06-10T18:54:45;4.68;;;3.78;;
40286;SDS011;25998;46.604;13.610;2023-06-10T18:57:56;5.10;;;3.88;;
40286;SDS011;25998;46.604;13.610;2023-06-10T19:01:07;4.85;;;3.90;;
40286;SDS011;25998;46.604;13.610;2023-06-10T19:04:17;4.38;;;3.65;;
40286;SDS011;25998;46.604;13.610;2023-06-10T19:07:28;5.72;;;4.07;;